sensor_id;sensor_type;location;lat;lon;timestamp;P1;durP1;ratioP1;P2;durP2;ratioP2
5125;SDS011;63008;53.112;8.896;2024-02-04T00:00:00;8.90;;;2.40;;
5125;SDS011;63008;53.112;8.896;2024-02-04T00:02:02;13.80;;;3.20;;
5125;SDS011;63008;53.112;8.896;2024-02-04T00:04:04;10.03;;;3.50;;
5125;SDS011;63008;53.112;8.896;2024-02-04T00:06:05;13.03;;;2.40;;
5125;SDS011;63008;53.112;8.896;2024-02-04T00:08:07;8.17;;;2.30;;
5125;SDS011;63008;53.112;8.896;2024-02-04T00:10:08;13.93;;;2.30;;
5125;SDS011;63008;53.112;8.896;2024-02-04T00:12:09;12.47;;;3.10;;
5125;SDS011;63008;53.112;8.896;2024-02-04T00:14:11;12.17;;;2.73;;
5125;SDS011;63008;53.112;8.896;2024-02-04T00:16:12;16.00;;;2.30;;
5125;SDS011;63008;53.112;8.896;2024-02-04T00:18:13;16.23;;;3.00;;
5125;SDS011;63008;53.112;8.896;2024-02-04T00:20:14;14.93;;;2.83;;
5125;SDS011;63008;53.112;8.896;2024-02-04T00:22:15;20.90;;;3.30;;
5125;SDS011;63008;53.112;8.896;2024-02-04T00:24:19;10.83;;;2.50;;
5125;SDS011;63008;53.112;8.896;2024-02-04T00:26:20;15.90;;;3.33;;
5125;SDS011;63008;53.112;8.896;2024-02-04T00:28:21;11.70;;;2.67;;
5125;SDS011;63008;53.112;8.896;2024-02-04T00:30:22;17.03;;;3.93;;
5125;SDS011;63008;53.112;8.896;2024-02-04T00:32:23;19.10;;;3.33;;
5125;SDS011;63008;53.112;8.896;2024-02-04T00:34:24;13.63;;;3.00;;
5125;SDS011;63008;53.112;8.896;2024-02-04T00:36:25;16.70;;;2.57;;
5125;SDS011;63008;53.112;8.896;2024-02-04T00:38:26;9.77;;;2.50;;
5125;SDS011;63008;53.112;8.896;2024-02-04T00:40:27;10.43;;;3.67;;
5125;SDS011;63008;53.112;8.896;2024-02-04T00:42:28;12.43;;;3.10;;
5125;SDS011;63008;53.112;8.896;2024-02-04T00:44:29;14.60;;;2.87;;
5125;SDS011;63008;53.112;8.896;2024-02-04T00:46:30;25.57;;;3.70;;
5125;SDS011;63008;53.112;8.896;2024-02-04T00:48:31;10.40;;;3.23;;
5125;SDS011;63008;53.112;8.896;2024-02-04T00:50:32;11.87;;;3.37;;
5125;SDS011;63008;53.112;8.896;2024-02-04T00:52:33;14.30;;;3.57;;
5125;SDS011;63008;53.112;8.896;2024-02-04T00:54:34;10.77;;;3.00;;
5125;SDS011;63008;53.112;8.896;2024-02-04T00:56:35;14.40;;;4.13;;
5125;SDS011;63008;53.112;8.896;2024-02-04T00:58:38;15.80;;;3.70;;
5125;SDS011;63008;53.112;8.896;2024-02-04T01:00:39;13.27;;;3.97;;
5125;SDS011;63008;53.112;8.896;2024-02-04T01:02:40;6.53;;;3.57;;
5125;SDS011;63008;53.112;8.896;2024-02-04T01:04:41;19.33;;;4.00;;
5125;SDS011;63008;53.112;8.896;2024-02-04T01:06:42;6.50;;;4.10;;
5125;SDS011;63008;53.112;8.896;2024-02-04T01:08:43;13.73;;;4.13;;
5125;SDS011;63008;53.112;8.896;2024-02-04T01:10:44;14.23;;;4.40;;
5125;SDS011;63008;53.112;8.896;2024-02-04T01:12:45;20.90;;;4.60;;
5125;SDS011;63008;53.112;8.896;2024-02-04T01:14:46;16.50;;;4.80;;
5125;SDS011;63008;53.112;8.896;2024-02-04T01:16:47;25.10;;;5.00;;
5125;SDS011;63008;53.112;8.896;2024-02-04T01:18:48;10.47;;;4.50;;
5125;SDS011;63008;53.112;8.896;2024-02-04T01:20:49;26.90;;;5.53;;
5125;SDS011;63008;53.112;8.896;2024-02-04T01:22:50;15.30;;;4.60;;
5125;SDS011;63008;53.112;8.896;2024-02-04T01:24:51;15.77;;;4.73;;
5125;SDS011;63008;53.112;8.896;2024-02-04T01:26:52;15.23;;;5.23;;
5125;SDS011;63008;53.112;8.896;2024-02-04T01:28:53;12.17;;;4.60;;
5125;SDS011;63008;53.112;8.896;2024-02-04T01:30:54;14.30;;;5.17;;
5125;SDS011;63008;53.112;8.896;2024-02-04T01:32:55;13.80;;;4.83;;
5125;SDS011;63008;53.112;8.896;2024-02-04T01:34:56;19.30;;;6.33;;
5125;SDS011;63008;53.112;8.896;2024-02-04T01:36:57;15.80;;;5.80;;
5125;SDS011;63008;53.112;8.896;2024-02-04T01:38:58;14.00;;;6.13;;
5125;SDS011;63008;53.112;8.896;2024-02-04T01:40:59;17.13;;;7.00;;
5125;SDS011;63008;53.112;8.896;2024-02-04T01:43:03;12.80;;;5.20;;
5125;SDS011;63008;53.112;8.896;2024-02-04T01:45:04;21.70;;;6.03;;
5125;SDS011;63008;53.112;8.896;2024-02-04T01:47:05;16.20;;;5.43;;
5125;SDS011;63008;53.112;8.896;2024-02-04T01:49:06;13.83;;;6.60;;
5125;SDS011;63008;53.112;8.896;2024-02-04T01:51:07;23.43;;;6.73;;
5125;SDS011;63008;53.112;8.896;2024-02-04T01:53:09;22.03;;;7.70;;
5125;SDS011;63008;53.112;8.896;2024-02-04T01:55:10;15.63;;;6.40;;
5125;SDS011;63008;53.112;8.896;2024-02-04T01:57:12;16.87;;;6.23;;
5125;SDS011;63008;53.112;8.896;2024-02-04T01:59:14;28.67;;;7.77;;
5125;SDS011;63008;53.112;8.896;2024-02-04T02:01:15;17.67;;;6.73;;
5125;SDS011;63008;53.112;8.896;2024-02-04T02:03:16;12.90;;;6.23;;
5125;SDS011;63008;53.112;8.896;2024-02-04T02:05:18;12.07;;;7.63;;
5125;SDS011;63008;53.112;8.896;2024-02-04T02:07:19;21.47;;;7.47;;
5125;SDS011;63008;53.112;8.896;2024-02-04T02:09:25;26.30;;;8.40;;
5125;SDS011;63008;53.112;8.896;2024-02-04T02:11:37;20.50;;;7.97;;
5125;SDS011;63008;53.112;8.896;2024-02-04T02:13:41;18.33;;;7.13;;
5125;SDS011;63008;53.112;8.896;2024-02-04T02:15:45;16.60;;;8.20;;
5125;SDS011;63008;53.112;8.896;2024-02-04T02:18:02;18.77;;;8.77;;
5125;SDS011;63008;53.112;8.896;2024-02-04T02:20:10;26.90;;;8.80;;
5125;SDS011;63008;53.112;8.896;2024-02-04T02:24:41;16.33;;;8.43;;
5125;SDS011;63008;53.112;8.896;2024-02-04T02:26:43;14.90;;;7.03;;
5125;SDS011;63008;53.112;8.896;2024-02-04T02:28:44;15.30;;;8.60;;
5125;SDS011;63008;53.112;8.896;2024-02-04T02:30:45;13.03;;;6.90;;
5125;SDS011;63008;53.112;8.896;2024-02-04T02:32:46;17.63;;;8.13;;
5125;SDS011;63008;53.112;8.896;2024-02-04T02:34:50;16.13;;;8.37;;
5125;SDS011;63008;53.112;8.896;2024-02-04T02:36:59;11.60;;;7.43;;
5125;SDS011;63008;53.112;8.896;2024-02-04T02:39:09;21.17;;;8.40;;
5125;SDS011;63008;53.112;8.896;2024-02-04T02:41:16;17.83;;;8.37;;
5125;SDS011;63008;53.112;8.896;2024-02-04T02:43:18;13.40;;;8.87;;
5125;SDS011;63008;53.112;8.896;2024-02-04T02:45:19;17.20;;;7.80;;
5125;SDS011;63008;53.112;8.896;2024-02-04T02:47:22;17.90;;;9.00;;
5125;SDS011;63008;53.112;8.896;2024-02-04T02:49:24;15.60;;;7.67;;
5125;SDS011;63008;53.112;8.896;2024-02-04T02:51:25;15.10;;;7.23;;
5125;SDS011;63008;53.112;8.896;2024-02-04T02:53:26;17.27;;;7.70;;
5125;SDS011;63008;53.112;8.896;2024-02-04T02:55:27;19.90;;;8.13;;
5125;SDS011;63008;53.112;8.896;2024-02-04T02:57:28;19.83;;;7.73;;
5125;SDS011;63008;53.112;8.896;2024-02-04T02:59:29;17.77;;;7.63;;
5125;SDS011;63008;53.112;8.896;2024-02-04T03:01:30;16.60;;;7.93;;
5125;SDS011;63008;53.112;8.896;2024-02-04T03:03:31;16.47;;;7.20;;
5125;SDS011;63008;53.112;8.896;2024-02-04T03:05:32;18.57;;;7.50;;
5125;SDS011;63008;53.112;8.896;2024-02-04T03:07:33;20.90;;;7.57;;
5125;SDS011;63008;53.112;8.896;2024-02-04T03:09:34;15.83;;;6.33;;
5125;SDS011;63008;53.112;8.896;2024-02-04T03:11:35;21.50;;;7.00;;
5125;SDS011;63008;53.112;8.896;2024-02-04T03:13:39;11.27;;;5.47;;
5125;SDS011;63008;53.112;8.896;2024-02-04T03:15:40;17.53;;;6.50;;
5125;SDS011;63008;53.112;8.896;2024-02-04T03:17:43;16.43;;;6.53;;
5125;SDS011;63008;53.112;8.896;2024-02-04T03:19:44;14.23;;;5.40;;
5125;SDS011;63008;53.112;8.896;2024-02-04T03:21:46;13.47;;;5.47;;
5125;SDS011;63008;53.112;8.896;2024-02-04T03:23:47;13.13;;;6.37;;
5125;SDS011;63008;53.112;8.896;2024-02-04T03:25:48;21.63;;;6.10;;
5125;SDS011;63008;53.112;8.896;2024-02-04T03:27:49;17.57;;;5.07;;
5125;SDS011;63008;53.112;8.896;2024-02-04T03:29:50;11.10;;;5.47;;
5125;SDS011;63008;53.112;8.896;2024-02-04T03:31:51;10.23;;;4.60;;
5125;SDS011;63008;53.112;8.896;2024-02-04T03:33:52;15.87;;;5.43;;
5125;SDS011;63008;53.112;8.896;2024-02-04T03:35:53;16.57;;;4.40;;
5125;SDS011;63008;53.112;8.896;2024-02-04T03:37:54;8.97;;;4.23;;
5125;SDS011;63008;53.112;8.896;2024-02-04T03:39:55;12.90;;;4.57;;
5125;SDS011;63008;53.112;8.896;2024-02-04T03:41:56;17.80;;;4.67;;
5125;SDS011;63008;53.112;8.896;2024-02-04T03:43:57;20.73;;;5.00;;
5125;SDS011;63008;53.112;8.896;2024-02-04T03:45:58;11.73;;;4.37;;
5125;SDS011;63008;53.112;8.896;2024-02-04T03:47:59;14.23;;;4.10;;
5125;SDS011;63008;53.112;8.896;2024-02-04T03:50:00;11.50;;;4.60;;
5125;SDS011;63008;53.112;8.896;2024-02-04T03:52:01;13.13;;;3.77;;
5125;SDS011;63008;53.112;8.896;2024-02-04T03:54:02;14.10;;;3.90;;
5125;SDS011;63008;53.112;8.896;2024-02-04T03:56:03;13.20;;;3.90;;
5125;SDS011;63008;53.112;8.896;2024-02-04T03:58:04;20.80;;;4.20;;
5125;SDS011;63008;53.112;8.896;2024-02-04T04:00:06;12.70;;;4.33;;
5125;SDS011;63008;53.112;8.896;2024-02-04T04:02:08;20.07;;;4.53;;
5125;SDS011;63008;53.112;8.896;2024-02-04T04:04:09;12.07;;;4.13;;
5125;SDS011;63008;53.112;8.896;2024-02-04T04:06:10;17.30;;;4.13;;
5125;SDS011;63008;53.112;8.896;2024-02-04T04:08:12;11.57;;;3.50;;
5125;SDS011;63008;53.112;8.896;2024-02-04T04:10:13;8.37;;;3.77;;
5125;SDS011;63008;53.112;8.896;2024-02-04T04:12:14;12.27;;;4.03;;
5125;SDS011;63008;53.112;8.896;2024-02-04T04:14:15;6.90;;;3.17;;
5125;SDS011;63008;53.112;8.896;2024-02-04T04:16:19;19.63;;;3.57;;
5125;SDS011;63008;53.112;8.896;2024-02-04T04:18:21;11.87;;;3.00;;
5125;SDS011;63008;53.112;8.896;2024-02-04T04:20:22;12.43;;;3.17;;
5125;SDS011;63008;53.112;8.896;2024-02-04T04:22:23;9.30;;;2.43;;
5125;SDS011;63008;53.112;8.896;2024-02-04T04:24:24;11.50;;;3.63;;
5125;SDS011;63008;53.112;8.896;2024-02-04T04:26:25;12.50;;;2.83;;
5125;SDS011;63008;53.112;8.896;2024-02-04T04:28:26;11.10;;;2.90;;
5125;SDS011;63008;53.112;8.896;2024-02-04T04:30:27;16.73;;;3.43;;
5125;SDS011;63008;53.112;8.896;2024-02-04T04:32:28;11.50;;;3.33;;
5125;SDS011;63008;53.112;8.896;2024-02-04T04:34:29;11.03;;;3.20;;
5125;SDS011;63008;53.112;8.896;2024-02-04T04:36:30;8.90;;;3.27;;
5125;SDS011;63008;53.112;8.896;2024-02-04T04:38:31;20.00;;;3.53;;
5125;SDS011;63008;53.112;8.896;2024-02-04T04:40:32;11.00;;;2.50;;
5125;SDS011;63008;53.112;8.896;2024-02-04T04:42:33;13.37;;;3.63;;
5125;SDS011;63008;53.112;8.896;2024-02-04T04:44:34;16.13;;;2.87;;
5125;SDS011;63008;53.112;8.896;2024-02-04T04:46:38;12.20;;;2.83;;
5125;SDS011;63008;53.112;8.896;2024-02-04T04:48:40;22.50;;;3.50;;
5125;SDS011;63008;53.112;8.896;2024-02-04T04:50:41;9.33;;;2.93;;
5125;SDS011;63008;53.112;8.896;2024-02-04T04:52:42;16.17;;;2.77;;
5125;SDS011;63008;53.112;8.896;2024-02-04T04:54:43;15.67;;;3.40;;
5125;SDS011;63008;53.112;8.896;2024-02-04T04:56:44;8.37;;;2.00;;
5125;SDS011;63008;53.112;8.896;2024-02-04T04:58:45;25.17;;;3.17;;
5125;SDS011;63008;53.112;8.896;2024-02-04T05:00:46;16.57;;;2.60;;
5125;SDS011;63008;53.112;8.896;2024-02-04T05:02:47;13.83;;;2.50;;
5125;SDS011;63008;53.112;8.896;2024-02-04T05:04:48;18.03;;;3.47;;
5125;SDS011;63008;53.112;8.896;2024-02-04T05:06:49;17.53;;;3.80;;
5125;SDS011;63008;53.112;8.896;2024-02-04T05:08:50;4.67;;;1.73;;
5125;SDS011;63008;53.112;8.896;2024-02-04T05:10:51;15.53;;;2.67;;
5125;SDS011;63008;53.112;8.896;2024-02-04T05:12:52;18.80;;;2.80;;
5125;SDS011;63008;53.112;8.896;2024-02-04T05:14:53;12.87;;;2.20;;
5125;SDS011;63008;53.112;8.896;2024-02-04T05:16:54;8.53;;;2.00;;
5125;SDS011;63008;53.112;8.896;2024-02-04T05:18:55;8.77;;;2.10;;
5125;SDS011;63008;53.112;8.896;2024-02-04T05:20:56;6.83;;;2.13;;
5125;SDS011;63008;53.112;8.896;2024-02-04T05:22:57;15.43;;;3.63;;
5125;SDS011;63008;53.112;8.896;2024-02-04T05:24:58;19.20;;;2.43;;
5125;SDS011;63008;53.112;8.896;2024-02-04T05:26:59;12.37;;;2.27;;
5125;SDS011;63008;53.112;8.896;2024-02-04T05:29:00;13.33;;;2.97;;
5125;SDS011;63008;53.112;8.896;2024-02-04T05:31:01;12.40;;;3.40;;
5125;SDS011;63008;53.112;8.896;2024-02-04T05:33:03;8.03;;;2.73;;
5125;SDS011;63008;53.112;8.896;2024-02-04T05:35:04;13.03;;;2.10;;
5125;SDS011;63008;53.112;8.896;2024-02-04T05:37:07;11.17;;;2.13;;
5125;SDS011;63008;53.112;8.896;2024-02-04T05:39:11;7.63;;;1.80;;
5125;SDS011;63008;53.112;8.896;2024-02-04T05:41:14;17.97;;;2.60;;
5125;SDS011;63008;53.112;8.896;2024-02-04T05:43:15;10.73;;;1.80;;
5125;SDS011;63008;53.112;8.896;2024-02-04T05:45:16;7.23;;;1.87;;
5125;SDS011;63008;53.112;8.896;2024-02-04T05:47:17;13.87;;;2.20;;
5125;SDS011;63008;53.112;8.896;2024-02-04T05:49:18;12.03;;;2.00;;
5125;SDS011;63008;53.112;8.896;2024-02-04T05:51:19;11.93;;;2.17;;
5125;SDS011;63008;53.112;8.896;2024-02-04T05:53:20;5.50;;;1.60;;
5125;SDS011;63008;53.112;8.896;2024-02-04T05:55:21;11.13;;;2.50;;
5125;SDS011;63008;53.112;8.896;2024-02-04T05:57:22;14.83;;;2.93;;
5125;SDS011;63008;53.112;8.896;2024-02-04T05:59:23;11.00;;;2.10;;
5125;SDS011;63008;53.112;8.896;2024-02-04T06:01:24;10.13;;;2.03;;
5125;SDS011;63008;53.112;8.896;2024-02-04T06:03:25;12.53;;;2.30;;
5125;SDS011;63008;53.112;8.896;2024-02-04T06:05:26;6.27;;;2.17;;
5125;SDS011;63008;53.112;8.896;2024-02-04T06:07:27;11.10;;;2.20;;
5125;SDS011;63008;53.112;8.896;2024-02-04T06:09:28;20.03;;;1.90;;
5125;SDS011;63008;53.112;8.896;2024-02-04T06:11:29;10.90;;;1.80;;
5125;SDS011;63008;53.112;8.896;2024-02-04T06:13:30;15.00;;;2.50;;
5125;SDS011;63008;53.112;8.896;2024-02-04T06:15:31;17.23;;;2.70;;
5125;SDS011;63008;53.112;8.896;2024-02-04T06:17:32;8.33;;;2.03;;
5125;SDS011;63008;53.112;8.896;2024-02-04T06:19:33;5.83;;;1.60;;
5125;SDS011;63008;53.112;8.896;2024-02-04T06:21:35;8.63;;;1.80;;
5125;SDS011;63008;53.112;8.896;2024-02-04T06:23:37;8.10;;;1.87;;
5125;SDS011;63008;53.112;8.896;2024-02-04T06:25:40;9.43;;;2.00;;
5125;SDS011;63008;53.112;8.896;2024-02-04T06:27:41;16.83;;;2.40;;
5125;SDS011;63008;53.112;8.896;2024-02-04T06:29:42;13.50;;;2.50;;
5125;SDS011;63008;53.112;8.896;2024-02-04T06:31:46;11.67;;;2.47;;
5125;SDS011;63008;53.112;8.896;2024-02-04T06:33:47;7.10;;;2.00;;
5125;SDS011;63008;53.112;8.896;2024-02-04T06:35:48;8.57;;;1.97;;
5125;SDS011;63008;53.112;8.896;2024-02-04T06:37:49;10.60;;;2.50;;
5125;SDS011;63008;53.112;8.896;2024-02-04T06:39:51;9.50;;;2.53;;
5125;SDS011;63008;53.112;8.896;2024-02-04T06:41:52;15.33;;;2.57;;
5125;SDS011;63008;53.112;8.896;2024-02-04T06:43:53;15.70;;;2.80;;
5125;SDS011;63008;53.112;8.896;2024-02-04T06:45:54;5.53;;;2.67;;
5125;SDS011;63008;53.112;8.896;2024-02-04T06:47:55;6.40;;;1.97;;
5125;SDS011;63008;53.112;8.896;2024-02-04T06:49:56;7.40;;;1.87;;
5125;SDS011;63008;53.112;8.896;2024-02-04T06:51:57;10.40;;;3.03;;
5125;SDS011;63008;53.112;8.896;2024-02-04T06:53:58;10.87;;;2.30;;
5125;SDS011;63008;53.112;8.896;2024-02-04T06:56:01;10.97;;;2.37;;
5125;SDS011;63008;53.112;8.896;2024-02-04T06:58:02;9.30;;;2.47;;
5125;SDS011;63008;53.112;8.896;2024-02-04T07:00:03;5.53;;;1.70;;
5125;SDS011;63008;53.112;8.896;2024-02-04T07:02:11;8.83;;;3.57;;
5125;SDS011;63008;53.112;8.896;2024-02-04T07:04:12;7.90;;;2.93;;
5125;SDS011;63008;53.112;8.896;2024-02-04T07:06:13;23.73;;;4.77;;
5125;SDS011;63008;53.112;8.896;2024-02-04T07:08:14;10.40;;;2.67;;
5125;SDS011;63008;53.112;8.896;2024-02-04T07:10:16;12.90;;;3.70;;
5125;SDS011;63008;53.112;8.896;2024-02-04T07:12:17;10.13;;;2.83;;
5125;SDS011;63008;53.112;8.896;2024-02-04T07:14:18;9.87;;;2.93;;
5125;SDS011;63008;53.112;8.896;2024-02-04T07:16:19;11.93;;;3.60;;
5125;SDS011;63008;53.112;8.896;2024-02-04T07:18:20;8.90;;;3.10;;
5125;SDS011;63008;53.112;8.896;2024-02-04T07:20:22;14.23;;;3.93;;
5125;SDS011;63008;53.112;8.896;2024-02-04T07:22:23;5.13;;;3.00;;
5125;SDS011;63008;53.112;8.896;2024-02-04T07:24:24;12.00;;;3.30;;
5125;SDS011;63008;53.112;8.896;2024-02-04T07:26:25;17.40;;;3.60;;
5125;SDS011;63008;53.112;8.896;2024-02-04T07:28:26;9.90;;;3.10;;
5125;SDS011;63008;53.112;8.896;2024-02-04T07:30:29;16.63;;;4.50;;
5125;SDS011;63008;53.112;8.896;2024-02-04T07:32:30;12.83;;;3.27;;
5125;SDS011;63008;53.112;8.896;2024-02-04T07:34:31;9.00;;;3.47;;
5125;SDS011;63008;53.112;8.896;2024-02-04T07:36:32;9.53;;;3.27;;
5125;SDS011;63008;53.112;8.896;2024-02-04T07:38:33;13.93;;;4.20;;
5125;SDS011;63008;53.112;8.896;2024-02-04T07:40:34;15.77;;;3.70;;
5125;SDS011;63008;53.112;8.896;2024-02-04T07:42:34;13.50;;;3.40;;
5125;SDS011;63008;53.112;8.896;2024-02-04T07:44:35;13.53;;;3.47;;
5125;SDS011;63008;53.112;8.896;2024-02-04T07:46:36;9.60;;;3.10;;
5125;SDS011;63008;53.112;8.896;2024-02-04T07:48:37;18.53;;;3.13;;
5125;SDS011;63008;53.112;8.896;2024-02-04T07:50:38;11.07;;;3.60;;
5125;SDS011;63008;53.112;8.896;2024-02-04T07:52:39;14.10;;;4.03;;
5125;SDS011;63008;53.112;8.896;2024-02-04T07:54:40;9.10;;;2.97;;
5125;SDS011;63008;53.112;8.896;2024-02-04T07:56:41;17.30;;;3.20;;
5125;SDS011;63008;53.112;8.896;2024-02-04T07:58:42;8.20;;;2.77;;
5125;SDS011;63008;53.112;8.896;2024-02-04T08:00:43;13.00;;;3.40;;
5125;SDS011;63008;53.112;8.896;2024-02-04T08:02:44;12.23;;;2.80;;
5125;SDS011;63008;53.112;8.896;2024-02-04T08:04:45;11.87;;;2.77;;
5125;SDS011;63008;53.112;8.896;2024-02-04T08:06:46;11.33;;;2.83;;
5125;SDS011;63008;53.112;8.896;2024-02-04T08:08:47;15.13;;;3.27;;
5125;SDS011;63008;53.112;8.896;2024-02-04T08:10:49;15.30;;;2.87;;
5125;SDS011;63008;53.112;8.896;2024-02-04T08:12:50;13.53;;;3.13;;
5125;SDS011;63008;53.112;8.896;2024-02-04T08:14:52;12.20;;;2.70;;
5125;SDS011;63008;53.112;8.896;2024-02-04T08:16:53;11.80;;;2.40;;
5125;SDS011;63008;53.112;8.896;2024-02-04T08:18:54;13.80;;;3.23;;
5125;SDS011;63008;53.112;8.896;2024-02-04T08:20:55;11.43;;;3.00;;
5125;SDS011;63008;53.112;8.896;2024-02-04T08:22:57;5.70;;;2.63;;
5125;SDS011;63008;53.112;8.896;2024-02-04T08:24:59;23.03;;;2.80;;
5125;SDS011;63008;53.112;8.896;2024-02-04T08:27:00;9.70;;;2.57;;
5125;SDS011;63008;53.112;8.896;2024-02-04T08:29:01;9.53;;;2.27;;
5125;SDS011;63008;53.112;8.896;2024-02-04T08:31:02;11.30;;;2.50;;
5125;SDS011;63008;53.112;8.896;2024-02-04T08:33:03;10.23;;;1.90;;
5125;SDS011;63008;53.112;8.896;2024-02-04T08:35:04;11.47;;;2.60;;
5125;SDS011;63008;53.112;8.896;2024-02-04T08:37:06;16.73;;;2.90;;
5125;SDS011;63008;53.112;8.896;2024-02-04T08:39:07;12.40;;;2.90;;
5125;SDS011;63008;53.112;8.896;2024-02-04T08:41:08;5.90;;;1.90;;
5125;SDS011;63008;53.112;8.896;2024-02-04T08:43:09;13.47;;;2.57;;
5125;SDS011;63008;53.112;8.896;2024-02-04T08:45:10;16.73;;;2.30;;
5125;SDS011;63008;53.112;8.896;2024-02-04T08:47:11;12.77;;;2.07;;
5125;SDS011;63008;53.112;8.896;2024-02-04T08:49:14;7.03;;;2.40;;
5125;SDS011;63008;53.112;8.896;2024-02-04T08:51:15;8.60;;;2.10;;
5125;SDS011;63008;53.112;8.896;2024-02-04T08:53:18;15.10;;;2.80;;
5125;SDS011;63008;53.112;8.896;2024-02-04T08:55:19;16.57;;;2.50;;
5125;SDS011;63008;53.112;8.896;2024-02-04T08:57:20;8.67;;;2.17;;
5125;SDS011;63008;53.112;8.896;2024-02-04T08:59:21;13.93;;;2.53;;
5125;SDS011;63008;53.112;8.896;2024-02-04T09:01:25;14.80;;;2.60;;
5125;SDS011;63008;53.112;8.896;2024-02-04T09:03:26;15.57;;;2.70;;
5125;SDS011;63008;53.112;8.896;2024-02-04T09:05:26;9.20;;;1.83;;
5125;SDS011;63008;53.112;8.896;2024-02-04T09:07:27;15.57;;;2.43;;
5125;SDS011;63008;53.112;8.896;2024-02-04T09:09:28;7.00;;;2.37;;
5125;SDS011;63008;53.112;8.896;2024-02-04T09:11:29;10.13;;;2.10;;
5125;SDS011;63008;53.112;8.896;2024-02-04T09:13:30;8.00;;;2.60;;
5125;SDS011;63008;53.112;8.896;2024-02-04T09:15:31;5.83;;;1.30;;
5125;SDS011;63008;53.112;8.896;2024-02-04T09:17:32;11.60;;;1.97;;
5125;SDS011;63008;53.112;8.896;2024-02-04T09:19:33;16.03;;;3.17;;
5125;SDS011;63008;53.112;8.896;2024-02-04T09:21:35;17.77;;;2.27;;
5125;SDS011;63008;53.112;8.896;2024-02-04T09:23:36;11.47;;;2.60;;
5125;SDS011;63008;53.112;8.896;2024-02-04T09:25:37;7.93;;;2.17;;
5125;SDS011;63008;53.112;8.896;2024-02-04T09:27:38;12.03;;;2.10;;
5125;SDS011;63008;53.112;8.896;2024-02-04T09:29:39;16.13;;;2.10;;
5125;SDS011;63008;53.112;8.896;2024-02-04T09:31:40;13.43;;;2.13;;
5125;SDS011;63008;53.112;8.896;2024-02-04T09:33:41;11.90;;;2.43;;
5125;SDS011;63008;53.112;8.896;2024-02-04T09:35:42;12.27;;;2.20;;
5125;SDS011;63008;53.112;8.896;2024-02-04T09:37:43;23.03;;;3.10;;
5125;SDS011;63008;53.112;8.896;2024-02-04T09:39:44;8.00;;;2.13;;
5125;SDS011;63008;53.112;8.896;2024-02-04T09:41:45;9.70;;;2.13;;
5125;SDS011;63008;53.112;8.896;2024-02-04T09:43:46;13.00;;;2.03;;
5125;SDS011;63008;53.112;8.896;2024-02-04T09:45:47;8.77;;;1.93;;
5125;SDS011;63008;53.112;8.896;2024-02-04T09:47:50;12.50;;;1.70;;
5125;SDS011;63008;53.112;8.896;2024-02-04T09:49:53;9.23;;;1.63;;
5125;SDS011;63008;53.112;8.896;2024-02-04T09:51:57;17.30;;;2.83;;
5125;SDS011;63008;53.112;8.896;2024-02-04T09:54:03;13.10;;;2.60;;
5125;SDS011;63008;53.112;8.896;2024-02-04T09:56:06;17.70;;;3.27;;
5125;SDS011;63008;53.112;8.896;2024-02-04T09:58:09;14.40;;;2.90;;
5125;SDS011;63008;53.112;8.896;2024-02-04T10:00:10;11.33;;;2.63;;
5125;SDS011;63008;53.112;8.896;2024-02-04T10:02:13;12.73;;;3.00;;
5125;SDS011;63008;53.112;8.896;2024-02-04T10:04:15;19.00;;;3.33;;
5125;SDS011;63008;53.112;8.896;2024-02-04T10:06:16;12.50;;;2.83;;
5125;SDS011;63008;53.112;8.896;2024-02-04T10:08:17;14.93;;;2.80;;
5125;SDS011;63008;53.112;8.896;2024-02-04T10:10:18;18.40;;;2.80;;
5125;SDS011;63008;53.112;8.896;2024-02-04T10:12:19;17.57;;;2.60;;
5125;SDS011;63008;53.112;8.896;2024-02-04T10:14:21;18.57;;;3.03;;
5125;SDS011;63008;53.112;8.896;2024-02-04T10:16:22;22.10;;;2.20;;
5125;SDS011;63008;53.112;8.896;2024-02-04T10:18:23;11.00;;;2.50;;
5125;SDS011;63008;53.112;8.896;2024-02-04T10:20:24;12.03;;;2.00;;
5125;SDS011;63008;53.112;8.896;2024-02-04T10:22:26;9.33;;;2.37;;
5125;SDS011;63008;53.112;8.896;2024-02-04T10:24:27;6.50;;;2.13;;
5125;SDS011;63008;53.112;8.896;2024-02-04T10:26:29;15.13;;;2.97;;
5125;SDS011;63008;53.112;8.896;2024-02-04T10:28:36;10.10;;;3.13;;
5125;SDS011;63008;53.112;8.896;2024-02-04T10:30:38;13.37;;;2.90;;
5125;SDS011;63008;53.112;8.896;2024-02-04T10:32:41;12.07;;;3.03;;
5125;SDS011;63008;53.112;8.896;2024-02-04T10:34:42;10.97;;;2.50;;
5125;SDS011;63008;53.112;8.896;2024-02-04T10:36:44;11.40;;;2.30;;
5125;SDS011;63008;53.112;8.896;2024-02-04T10:38:45;17.37;;;3.33;;
5125;SDS011;63008;53.112;8.896;2024-02-04T10:40:46;8.23;;;2.70;;
5125;SDS011;63008;53.112;8.896;2024-02-04T10:42:50;8.30;;;2.43;;
5125;SDS011;63008;53.112;8.896;2024-02-04T10:44:57;10.87;;;3.30;;
5125;SDS011;63008;53.112;8.896;2024-02-04T10:46:59;8.20;;;2.83;;
5125;SDS011;63008;53.112;8.896;2024-02-04T10:49:07;11.97;;;2.80;;
5125;SDS011;63008;53.112;8.896;2024-02-04T10:51:14;7.73;;;2.10;;
5125;SDS011;63008;53.112;8.896;2024-02-04T10:53:16;13.17;;;2.47;;
5125;SDS011;63008;53.112;8.896;2024-02-04T10:55:21;12.70;;;3.17;;
5125;SDS011;63008;53.112;8.896;2024-02-04T10:57:28;7.77;;;2.60;;
5125;SDS011;63008;53.112;8.896;2024-02-04T10:59:31;7.50;;;2.63;;
5125;SDS011;63008;53.112;8.896;2024-02-04T11:01:33;9.30;;;2.53;;
5125;SDS011;63008;53.112;8.896;2024-02-04T11:03:34;12.53;;;2.50;;
5125;SDS011;63008;53.112;8.896;2024-02-04T11:05:36;13.87;;;2.50;;
5125;SDS011;63008;53.112;8.896;2024-02-04T11:07:39;9.73;;;2.60;;
5125;SDS011;63008;53.112;8.896;2024-02-04T11:09:41;8.37;;;2.30;;
5125;SDS011;63008;53.112;8.896;2024-02-04T11:11:42;8.53;;;2.10;;
5125;SDS011;63008;53.112;8.896;2024-02-04T11:13:45;5.30;;;1.93;;
5125;SDS011;63008;53.112;8.896;2024-02-04T11:15:48;9.43;;;2.63;;
5125;SDS011;63008;53.112;8.896;2024-02-04T11:18:04;14.50;;;2.83;;
5125;SDS011;63008;53.112;8.896;2024-02-04T11:20:31;9.97;;;3.53;;
5125;SDS011;63008;53.112;8.896;2024-02-04T11:22:48;9.07;;;2.03;;
5125;SDS011;63008;53.112;8.896;2024-02-04T11:24:54;11.70;;;3.83;;
5125;SDS011;63008;53.112;8.896;2024-02-04T11:27:08;8.77;;;2.20;;
5125;SDS011;63008;53.112;8.896;2024-02-04T11:29:10;11.40;;;2.30;;
5125;SDS011;63008;53.112;8.896;2024-02-04T11:31:14;10.33;;;2.00;;
5125;SDS011;63008;53.112;8.896;2024-02-04T11:33:18;5.67;;;1.87;;
5125;SDS011;63008;53.112;8.896;2024-02-04T11:35:20;15.20;;;3.03;;
5125;SDS011;63008;53.112;8.896;2024-02-04T11:37:22;8.30;;;2.53;;
5125;SDS011;63008;53.112;8.896;2024-02-04T11:39:24;12.87;;;2.33;;
5125;SDS011;63008;53.112;8.896;2024-02-04T11:41:25;15.40;;;3.00;;
5125;SDS011;63008;53.112;8.896;2024-02-04T11:43:27;11.00;;;2.60;;
5125;SDS011;63008;53.112;8.896;2024-02-04T11:45:32;9.80;;;2.30;;
5125;SDS011;63008;53.112;8.896;2024-02-04T11:47:33;14.70;;;2.60;;
5125;SDS011;63008;53.112;8.896;2024-02-04T11:49:36;11.23;;;2.57;;
5125;SDS011;63008;53.112;8.896;2024-02-04T11:51:38;10.07;;;2.50;;
5125;SDS011;63008;53.112;8.896;2024-02-04T11:53:39;11.60;;;2.43;;
5125;SDS011;63008;53.112;8.896;2024-02-04T11:55:40;9.53;;;2.30;;
5125;SDS011;63008;53.112;8.896;2024-02-04T11:57:41;11.83;;;2.10;;
5125;SDS011;63008;53.112;8.896;2024-02-04T11:59:42;13.10;;;3.30;;
5125;SDS011;63008;53.112;8.896;2024-02-04T12:01:45;4.90;;;1.80;;
5125;SDS011;63008;53.112;8.896;2024-02-04T12:03:46;11.63;;;2.40;;
5125;SDS011;63008;53.112;8.896;2024-02-04T12:05:47;11.10;;;2.27;;
5125;SDS011;63008;53.112;8.896;2024-02-04T12:07:48;10.03;;;2.63;;
5125;SDS011;63008;53.112;8.896;2024-02-04T12:09:50;10.10;;;2.23;;
5125;SDS011;63008;53.112;8.896;2024-02-04T12:11:51;12.53;;;2.10;;
5125;SDS011;63008;53.112;8.896;2024-02-04T12:13:54;10.33;;;2.27;;
5125;SDS011;63008;53.112;8.896;2024-02-04T12:15:57;7.70;;;2.90;;
5125;SDS011;63008;53.112;8.896;2024-02-04T12:18:10;14.10;;;2.20;;